RLTS2 YTEM-YTEM

Flight info

Callsign RLTS2
Flight time 0h 27m
Altitude 6000
Route DCT
Aircraft PC21/M-S/LB1

Departure

Time 2026-05-07 11:12
Airport Temora Airport (YTEM)

Arrival

Time 2026-05-07 11:39
Airport Temora Airport (YTEM)
Time Latitude Longitude Altitude Speed Heading
2026-05-07 10:59 -34.42537 147.51523 913 ft 0 kts 97°
2026-05-07 11:07 -34.42537 147.51525 913 ft 3 kts 83°
2026-05-07 11:07 -34.42509 147.51537 912 ft 12 kts
2026-05-07 11:07 -34.42462 147.51542 912 ft 2 kts 329°
2026-05-07 11:08 -34.42456 147.51529 912 ft 4 kts 282°
2026-05-07 11:08 -34.42455 147.51480 911 ft 8 kts 264°
2026-05-07 11:08 -34.42451 147.51408 910 ft 9 kts 279°
2026-05-07 11:08 -34.42497 147.51353 911 ft 12 kts 189°
2026-05-07 11:09 -34.42581 147.51337 913 ft 13 kts 189°
2026-05-07 11:09 -34.42677 147.51319 916 ft 13 kts 188°
2026-05-07 11:09 -34.42758 147.51303 918 ft 12 kts 190°
2026-05-07 11:09 -34.42849 147.51287 920 ft 15 kts 188°
2026-05-07 11:10 -34.42940 147.51269 924 ft 11 kts 191°
2026-05-07 11:10 -34.43004 147.51254 923 ft 8 kts 189°
2026-05-07 11:10 -34.43026 147.51264 922 ft 3 kts 69°
2026-05-07 11:10 -34.43005 147.51276 922 ft 2 kts
2026-05-07 11:11 -34.42970 147.51283 924 ft 0 kts
2026-05-07 11:12 -34.42680 147.51339 916 ft 83 kts
2026-05-07 11:12 -34.41897 147.51484 1147 ft 133 kts
2026-05-07 11:12 -34.40825 147.51714 1761 ft 180 kts 15°
2026-05-07 11:12 -34.39573 147.52459 2235 ft 224 kts 37°
2026-05-07 11:13 -34.38812 147.54172 2258 ft 234 kts 98°
2026-05-07 11:13 -34.39802 147.55277 2206 ft 207 kts 181°
2026-05-07 11:13 -34.41254 147.54948 2306 ft 222 kts 199°
2026-05-07 11:13 -34.42792 147.54915 2490 ft 233 kts 158°
2026-05-07 11:14 -34.43764 147.56383 2566 ft 235 kts 108°
2026-05-07 11:14 -34.43555 147.58316 2694 ft 238 kts 61°
2026-05-07 11:14 -34.42267 147.59577 2529 ft 253 kts 13°
2026-05-07 11:14 -34.40620 147.59551 2745 ft 227 kts 339°
2026-05-07 11:15 -34.39107 147.59286 2977 ft 228 kts 11°
2026-05-07 11:15 -34.37995 147.60661 2640 ft 250 kts 82°
2026-05-07 11:15 -34.38617 147.62454 2388 ft 238 kts 156°
2026-05-07 11:15 -34.40097 147.62159 1989 ft 232 kts 228°
2026-05-07 11:16 -34.40919 147.60499 2080 ft 226 kts 242°
2026-05-07 11:16 -34.41606 147.58812 2061 ft 223 kts 245°
2026-05-07 11:16 -34.42182 147.57067 1916 ft 224 kts 250°
2026-05-07 11:16 -34.42588 147.55215 1636 ft 232 kts 261°
2026-05-07 11:17 -34.42641 147.53252 1398 ft 238 kts 274°
2026-05-07 11:17 -34.42405 147.51245 1199 ft 240 kts 279°
2026-05-07 11:17 -34.41946 147.49401 1687 ft 216 kts 311°
2026-05-07 11:17 -34.40705 147.49771 1912 ft 238 kts 79°
2026-05-07 11:18 -34.41664 147.51125 1332 ft 246 kts 177°
2026-05-07 11:18 -34.43377 147.50862 1328 ft 244 kts 191°
2026-05-07 11:18 -34.44924 147.50412 2079 ft 207 kts 215°
2026-05-07 11:18 -34.44804 147.49053 2160 ft 234 kts 340°
2026-05-07 11:19 -34.43378 147.50189 1258 ft 279 kts 57°
2026-05-07 11:19 -34.41941 147.51439 1628 ft 258 kts 357°
2026-05-07 11:19 -34.40534 147.50361 1682 ft 240 kts 302°
2026-05-07 11:19 -34.39307 147.49357 2394 ft 234 kts 10°
2026-05-07 11:20 -34.38873 147.50983 1907 ft 248 kts 138°
2026-05-07 11:20 -34.40532 147.51310 1361 ft 256 kts 188°
2026-05-07 11:20 -34.42293 147.51036 1245 ft 255 kts 189°
2026-05-07 11:20 -34.43253 147.51819 1937 ft 238 kts 61°
2026-05-07 11:21 -34.43793 147.53147 1736 ft 235 kts 199°
2026-05-07 11:21 -34.44691 147.51675 1782 ft 238 kts 264°
2026-05-07 11:21 -34.44633 147.49571 1774 ft 257 kts 271°
2026-05-07 11:21 -34.43846 147.47830 1748 ft 267 kts 359°
2026-05-07 11:22 -34.42463 147.49179 1399 ft 285 kts 75°
2026-05-07 11:22 -34.42266 147.51442 1320 ft 273 kts 15°
2026-05-07 11:22 -34.40949 147.51749 3499 ft 54 kts 188°
2026-05-07 11:22 -34.41835 147.51450 1196 ft 270 kts 189°
2026-05-07 11:23 -34.42825 147.50286 1210 ft 256 kts 339°
2026-05-07 11:23 -34.42360 147.51321 1160 ft 239 kts 186°
2026-05-07 11:23 -34.42899 147.52221 1948 ft 249 kts 21°
2026-05-07 11:23 -34.41292 147.53442 1531 ft 300 kts 56°
2026-05-07 11:24 -34.41687 147.55454 1985 ft 266 kts 179°
2026-05-07 11:24 -34.42937 147.54056 2113 ft 264 kts 253°
2026-05-07 11:24 -34.42871 147.51721 1452 ft 294 kts 277°
2026-05-07 11:24 -34.42640 147.49900 3735 ft 4 kts 243°
2026-05-07 11:25 -34.42409 147.50069 2548 ft 166 kts 190°
2026-05-07 11:25 -34.43815 147.50736 2577 ft 267 kts 90°
2026-05-07 11:25 -34.42766 147.52328 2473 ft 245 kts 16°
2026-05-07 11:25 -34.41892 147.53678 1946 ft 249 kts 122°
2026-05-07 11:26 -34.42863 147.55534 1772 ft 255 kts 144°
2026-05-07 11:26 -34.44320 147.55420 1827 ft 225 kts 227°
2026-05-07 11:26 -34.45022 147.53719 1736 ft 231 kts 253°
2026-05-07 11:26 -34.45341 147.51827 1669 ft 230 kts 262°
2026-05-07 11:27 -34.45336 147.49898 1680 ft 230 kts 273°
2026-05-07 11:27 -34.44934 147.48066 1652 ft 234 kts 311°
2026-05-07 11:27 -34.43382 147.47708 1460 ft 251 kts 22°
2026-05-07 11:27 -34.42493 147.49436 1256 ft 257 kts 88°
2026-05-07 11:28 -34.42813 147.51430 1997 ft 171 kts 140°
2026-05-07 11:28 -34.43358 147.52553 2796 ft 212 kts 109°
2026-05-07 11:28 -34.44285 147.54184 1472 ft 259 kts 171°
2026-05-07 11:28 -34.45493 147.55420 2085 ft 263 kts 88°
2026-05-07 11:29 -34.44285 147.56751 2021 ft 243 kts 354°
2026-05-07 11:29 -34.43143 147.55462 1502 ft 242 kts 282°
2026-05-07 11:29 -34.42879 147.53467 1336 ft 238 kts 278°
2026-05-07 11:29 -34.42611 147.51442 1140 ft 246 kts 279°
2026-05-07 11:30 -34.42222 147.49524 1753 ft 217 kts 303°
2026-05-07 11:30 -34.40989 147.49840 2053 ft 243 kts 78°
2026-05-07 11:30 -34.41957 147.51172 1235 ft 255 kts 180°
2026-05-07 11:30 -34.43692 147.50841 1463 ft 238 kts 193°
2026-05-07 11:31 -34.44983 147.50086 2343 ft 198 kts 250°
2026-05-07 11:31 -34.44068 147.49101 1826 ft 261 kts 21°
2026-05-07 11:31 -34.42833 147.50857 1387 ft 278 kts 47°
2026-05-07 11:31 -34.41171 147.51189 1561 ft 253 kts 324°
2026-05-07 11:32 -34.38920 147.48793 2193 ft 246 kts 22°
2026-05-07 11:32 -34.38452 147.50553 2010 ft 247 kts 124°
2026-05-07 11:32 -34.39925 147.51411 1473 ft 252 kts 180°
2026-05-07 11:33 -34.41678 147.51205 1258 ft 253 kts 190°
2026-05-07 11:33 -34.43171 147.51387 1998 ft 235 kts 97°
2026-05-07 11:33 -34.42854 147.53577 1601 ft 277 kts 92°
2026-05-07 11:33 -34.42975 147.55837 1888 ft 252 kts 97°
2026-05-07 11:34 -34.43098 147.57900 2037 ft 248 kts 89°
2026-05-07 11:34 -34.42519 147.59800 2195 ft 240 kts 44°
2026-05-07 11:34 -34.40966 147.60188 2209 ft 245 kts 325°
2026-05-07 11:34 -34.40281 147.58342 1786 ft 261 kts 273°
2026-05-07 11:35 -34.40147 147.56200 1734 ft 253 kts 271°
2026-05-07 11:35 -34.40111 147.54079 1681 ft 253 kts 269°
2026-05-07 11:35 -34.40270 147.51947 1574 ft 271 kts 224°
2026-05-07 11:35 -34.42028 147.52084 1294 ft 264 kts 153°
2026-05-07 11:36 -34.43595 147.53161 1700 ft 246 kts 156°
2026-05-07 11:36 -34.45195 147.53780 1943 ft 239 kts 180°
2026-05-07 11:36 -34.46787 147.53356 2012 ft 233 kts 207°
2026-05-07 11:36 -34.48205 147.52503 2066 ft 223 kts 210°
2026-05-07 11:37 -34.48856 147.51084 1965 ft 228 kts 289°
2026-05-07 11:37 -34.47380 147.50297 1608 ft 293 kts 10°
2026-05-07 11:37 -34.45362 147.51009 1442 ft 315 kts
2026-05-07 11:37 -34.43093 147.51332 1225 ft 319 kts
2026-05-07 11:38 -34.41617 147.50767 2113 ft 200 kts 246°
2026-05-07 11:38 -34.42601 147.50313 2079 ft 133 kts 194°
2026-05-07 11:38 -34.43511 147.50127 1824 ft 136 kts 195°
2026-05-07 11:38 -34.44430 147.49976 1702 ft 133 kts 166°
2026-05-07 11:39 -34.44496 147.50969 1409 ft 138 kts 22°
2026-05-07 11:39 -34.43629 147.51155 1064 ft 126 kts
2026-05-07 11:39 -34.42756 147.51320 922 ft 114 kts
2026-05-07 11:39 -34.42190 147.51426 910 ft 40 kts
2026-05-07 11:40 -34.41951 147.51470 905 ft 15 kts
2026-05-07 11:40 -34.41907 147.51508 905 ft 8 kts 99°
2026-05-07 11:40 -34.41928 147.51566 904 ft 8 kts 188°
2026-05-07 11:40 -34.42022 147.51547 907 ft 14 kts 189°
2026-05-07 11:41 -34.42110 147.51530 908 ft 12 kts 189°
2026-05-07 11:41 -34.42202 147.51511 911 ft 16 kts 189°
2026-05-07 11:41 -34.42305 147.51492 912 ft 15 kts 188°
2026-05-07 11:41 -34.42410 147.51471 911 ft 15 kts 189°
2026-05-07 11:42 -34.42502 147.51472 912 ft 9 kts 156°
2026-05-07 11:42 -34.42521 147.51517 912 ft 4 kts 97°
2026-05-07 11:42 -34.42522 147.51524 913 ft 0 kts 98°
2026-05-07 11:44 -34.42522 147.51525 913 ft 0 kts 98°
2026-05-07 11:48 -34.42500 147.51537 912 ft 8 kts
2026-05-07 11:48 -34.42461 147.51485 914 ft 11 kts 278°
2026-05-07 11:48 -34.42454 147.51386 908 ft 12 kts 242°
2026-05-07 11:48 -34.42523 147.51350 911 ft 12 kts 191°
2026-05-07 11:49 -34.42626 147.51330 912 ft 16 kts 189°
2026-05-07 11:49 -34.42732 147.51309 914 ft 15 kts 189°
2026-05-07 11:49 -34.42835 147.51289 921 ft 14 kts 189°
2026-05-07 11:49 -34.42931 147.51270 924 ft 14 kts 189°
2026-05-07 11:50 -34.43014 147.51257 923 ft 5 kts 139°
2026-05-07 11:50 -34.42991 147.51285 923 ft 6 kts 18°
2026-05-07 11:50 -34.42978 147.51287 925 ft 5 kts
2026-05-07 11:50 -34.42956 147.51291 922 ft 0 kts
2026-05-07 11:51 -34.42806 147.51317 924 ft 67 kts
2026-05-07 11:52 -34.42071 147.51458 927 ft 139 kts
2026-05-07 11:52 -34.40966 147.51694 1324 ft 183 kts
2026-05-07 11:52 -34.39635 147.52018 2042 ft 213 kts 14°
2026-05-07 11:52 -34.38555 147.53272 2534 ft 238 kts 79°
2026-05-07 11:53 -34.39182 147.55044 2572 ft 253 kts 154°
2026-05-07 11:53 -34.40940 147.55217 2423 ft 272 kts 195°
2026-05-07 11:53 -34.42816 147.54439 2273 ft 288 kts 206°
2026-05-07 11:53 -34.44473 147.53138 2304 ft 282 kts 225°
2026-05-07 11:54 -34.45538 147.51160 2342 ft 285 kts 248°
2026-05-07 11:54 -34.45746 147.48802 2289 ft 285 kts 274°
2026-05-07 11:54 -34.44906 147.46643 2193 ft 284 kts 298°
2026-05-07 11:54 -34.43767 147.44718 2158 ft 282 kts 305°
2026-05-07 11:55 -34.42069 147.43794 2082 ft 282 kts 12°
2026-05-07 11:55 -34.41038 147.45586 1866 ft 285 kts 98°
2026-05-07 11:55 -34.41676 147.47845 1691 ft 286 kts 111°
2026-05-07 11:55 -34.42107 147.50154 1446 ft 284 kts 102°
2026-05-07 11:56 -34.41144 147.51569 1403 ft 277 kts
2026-05-07 11:56 -34.40531 147.51717 3880 ft 99 kts 191°
2026-05-07 11:56 -34.41805 147.51383 1249 ft 278 kts 190°
2026-05-07 11:56 -34.42542 147.50284 1256 ft 261 kts
2026-05-07 11:57 -34.42428 147.51317 1162 ft 229 kts 203°
2026-05-07 11:57 -34.42179 147.50705 1543 ft 244 kts 11°
2026-05-07 11:57 -34.40399 147.50632 1793 ft 274 kts 339°
2026-05-07 11:57 -34.38542 147.49788 2072 ft 294 kts 333°
2026-05-07 11:58 -34.36660 147.48703 2137 ft 303 kts 326°
2026-05-07 11:58 -34.34768 147.47917 2323 ft 263 kts
2026-05-07 11:58 -34.33845 147.49495 2034 ft 272 kts 111°
2026-05-07 11:58 -34.35355 147.50844 1583 ft 291 kts 166°
2026-05-07 11:59 -34.37336 147.51429 1407 ft 291 kts 177°
2026-05-07 11:59 -34.39373 147.51500 1264 ft 293 kts 174°
2026-05-07 11:59 -34.41370 147.51546 1085 ft 291 kts 192°
2026-05-07 11:59 -34.43374 147.51217 1146 ft 282 kts 189°
2026-05-07 12:00 -34.45217 147.50889 1355 ft 265 kts 194°
2026-05-07 12:00 -34.47033 147.50503 2105 ft 264 kts 176°
2026-05-07 12:00 -34.47995 147.52170 2060 ft 279 kts 83°
2026-05-07 12:00 -34.46952 147.54128 1957 ft 286 kts 36°
2026-05-07 12:01 -34.45098 147.54849 1982 ft 287 kts 351°
2026-05-07 12:01 -34.43370 147.53853 1914 ft 283 kts 304°
2026-05-07 12:01 -34.42750 147.51550 1431 ft 306 kts 281°
2026-05-07 12:01 -34.42514 147.50000 4346 ft 17 kts 296°
2026-05-07 12:02 -34.42343 147.50061 2534 ft 157 kts 186°
2026-05-07 12:02 -34.43931 147.50465 2758 ft 278 kts 113°
2026-05-07 12:02 -34.42394 147.51321 1187 ft 301 kts 347°
2026-05-07 12:02 -34.40938 147.52802 1387 ft 298 kts 63°
2026-05-07 12:03 -34.39976 147.54986 1571 ft 296 kts 47°
2026-05-07 12:03 -34.38084 147.55685 1703 ft 302 kts 343°
2026-05-07 12:03 -34.37040 147.53857 1572 ft 298 kts 258°
2026-05-07 12:03 -34.38368 147.52032 1473 ft 313 kts 195°
2026-05-07 12:04 -34.40517 147.51667 1260 ft 304 kts 190°
2026-05-07 12:04 -34.42629 147.51357 1235 ft 296 kts 188°
2026-05-07 12:04 -34.44525 147.51091 1370 ft 263 kts 191°
2026-05-07 12:04 -34.46404 147.50721 1584 ft 281 kts 192°
2026-05-07 12:05 -34.48372 147.50635 1813 ft 287 kts 165°
2026-05-07 12:05 -34.49549 147.52400 2081 ft 283 kts 103°
2026-05-07 12:05 -34.49155 147.54681 2239 ft 283 kts 56°
2026-05-07 12:05 -34.47688 147.56242 2361 ft 284 kts 21°
2026-05-07 12:06 -34.45738 147.56528 2432 ft 288 kts 347°
2026-05-07 12:06 -34.43784 147.55998 2192 ft 291 kts 340°
2026-05-07 12:06 -34.41816 147.55318 2184 ft 291 kts 340°
2026-05-07 12:06 -34.40011 147.55587 3229 ft 266 kts 49°
2026-05-07 12:07 -34.40491 147.57270 2581 ft 269 kts 180°
2026-05-07 12:07 -34.42139 147.56005 1472 ft 311 kts 237°
2026-05-07 12:07 -34.42695 147.53452 1172 ft 323 kts 270°
2026-05-07 12:07 -34.42478 147.50754 1208 ft 310 kts 277°
2026-05-07 12:08 -34.42116 147.49766 5158 ft 147 kts 323°
2026-05-07 12:08 -34.43160 147.50198 2133 ft 272 kts 211°
2026-05-07 12:08 -34.42968 147.51276 1035 ft 324 kts
2026-05-07 12:08 -34.40864 147.51860 1430 ft 305 kts 29°
2026-05-07 12:09 -34.40752 147.53373 1557 ft 251 kts 187°
2026-05-07 12:09 -34.42603 147.53044 1588 ft 282 kts 191°
2026-05-07 12:09 -34.44594 147.52676 1686 ft 297 kts 189°
2026-05-07 12:09 -34.46680 147.52341 1778 ft 307 kts 190°
2026-05-07 12:10 -34.48818 147.52117 2021 ft 310 kts 182°
2026-05-07 12:10 -34.50834 147.51586 2256 ft 297 kts 229°
2026-05-07 12:10 -34.50075 147.49977 2027 ft 296 kts 354°
2026-05-07 12:10 -34.48015 147.50459 1784 ft 298 kts
2026-05-07 12:11 -34.45982 147.50824 1541 ft 298 kts
2026-05-07 12:11 -34.43918 147.51146 1351 ft 299 kts
2026-05-07 12:11 -34.41879 147.51501 1285 ft 283 kts
2026-05-07 12:11 -34.41725 147.50525 1819 ft 171 kts 191°
2026-05-07 12:12 -34.42712 147.50434 1761 ft 132 kts 190°
2026-05-07 12:12 -34.43661 147.50312 1670 ft 139 kts 191°
2026-05-07 12:12 -34.44033 147.51030 1322 ft 147 kts 29°
2026-05-07 12:12 -34.43113 147.51249 938 ft 126 kts
2026-05-07 12:13 -34.42403 147.51381 910 ft 67 kts
2026-05-07 12:13 -34.42044 147.51453 906 ft 43 kts
2026-05-07 12:13 -34.41906 147.51502 905 ft 10 kts 94°
2026-05-07 12:13 -34.41920 147.51567 904 ft 7 kts 184°
2026-05-07 12:14 -34.42023 147.51546 907 ft 16 kts 188°
2026-05-07 12:14 -34.42130 147.51525 909 ft 15 kts 190°
2026-05-07 12:14 -34.42231 147.51506 912 ft 16 kts 191°
2026-05-07 12:14 -34.42347 147.51484 911 ft 18 kts 189°
2026-05-07 12:15 -34.42467 147.51461 911 ft 16 kts 186°
2026-05-07 12:15 -34.42519 147.51499 912 ft 6 kts 97°
2026-05-07 12:15 -34.42522 147.51525 913 ft 0 kts 98°